sensor_id;sensor_type;location;lat;lon;timestamp;P1;durP1;ratioP1;P2;durP2;ratioP2
64293;SDS011;50636;45.596;5.258;2022-10-17T00:01:08;8.75;;;4.18;;
64293;SDS011;50636;45.596;5.258;2022-10-17T00:03:34;5.95;;;2.92;;
64293;SDS011;50636;45.596;5.258;2022-10-17T00:06:09;7.22;;;3.20;;
64293;SDS011;50636;45.596;5.258;2022-10-17T00:08:37;8.95;;;3.20;;
64293;SDS011;50636;45.596;5.258;2022-10-17T00:11:11;6.82;;;2.53;;
64293;SDS011;50636;45.596;5.258;2022-10-17T00:13:39;4.10;;;2.40;;
64293;SDS011;50636;45.596;5.258;2022-10-17T00:16:05;8.43;;;3.00;;
64293;SDS011;50636;45.596;5.258;2022-10-17T00:18:31;9.90;;;3.42;;
64293;SDS011;50636;45.596;5.258;2022-10-17T00:20:57;5.32;;;2.50;;
64293;SDS011;50636;45.596;5.258;2022-10-17T00:23:22;4.80;;;2.20;;
64293;SDS011;50636;45.596;5.258;2022-10-17T00:25:56;6.80;;;2.88;;
64293;SDS011;50636;45.596;5.258;2022-10-17T00:31:02;7.43;;;2.78;;
64293;SDS011;50636;45.596;5.258;2022-10-17T00:33:29;5.85;;;2.80;;
64293;SDS011;50636;45.596;5.258;2022-10-17T00:36:06;5.35;;;2.72;;
64293;SDS011;50636;45.596;5.258;2022-10-17T00:38:32;12.32;;;2.80;;
64293;SDS011;50636;45.596;5.258;2022-10-17T00:40:58;5.78;;;2.35;;
64293;SDS011;50636;45.596;5.258;2022-10-17T00:43:24;3.30;;;2.22;;
64293;SDS011;50636;45.596;5.258;2022-10-17T00:45:50;6.82;;;2.80;;
64293;SDS011;50636;45.596;5.258;2022-10-17T00:48:17;5.30;;;2.78;;
64293;SDS011;50636;45.596;5.258;2022-10-17T00:50:44;3.38;;;2.08;;
64293;SDS011;50636;45.596;5.258;2022-10-17T00:53:13;9.88;;;2.80;;
64293;SDS011;50636;45.596;5.258;2022-10-17T00:55:49;7.38;;;2.55;;
64293;SDS011;50636;45.596;5.258;2022-10-17T00:58:17;8.52;;;3.20;;
64293;SDS011;50636;45.596;5.258;2022-10-17T01:00:45;6.68;;;3.03;;
64293;SDS011;50636;45.596;5.258;2022-10-17T01:03:12;4.93;;;2.80;;
64293;SDS011;50636;45.596;5.258;2022-10-17T01:05:38;8.07;;;2.78;;
64293;SDS011;50636;45.596;5.258;2022-10-17T01:08:05;7.50;;;2.55;;
64293;SDS011;50636;45.596;5.258;2022-10-17T01:10:34;12.05;;;3.00;;
64293;SDS011;50636;45.596;5.258;2022-10-17T01:13:29;8.23;;;2.60;;
64293;SDS011;50636;45.596;5.258;2022-10-17T01:16:25;4.60;;;2.90;;
64293;SDS011;50636;45.596;5.258;2022-10-17T01:19:29;7.60;;;3.10;;
64293;SDS011;50636;45.596;5.258;2022-10-17T01:24:45;5.28;;;2.95;;
64293;SDS011;50636;45.596;5.258;2022-10-17T01:27:26;7.00;;;3.13;;
64293;SDS011;50636;45.596;5.258;2022-10-17T01:32:45;5.93;;;2.75;;
64293;SDS011;50636;45.596;5.258;2022-10-17T01:38:06;9.27;;;2.72;;
64293;SDS011;50636;45.596;5.258;2022-10-17T01:41:55;6.53;;;2.63;;
64293;SDS011;50636;45.596;5.258;2022-10-17T01:43:54;12.07;;;3.65;;
64293;SDS011;50636;45.596;5.258;2022-10-17T01:46:32;7.60;;;2.50;;
64293;SDS011;50636;45.596;5.258;2022-10-17T01:48:59;5.00;;;3.28;;
64293;SDS011;50636;45.596;5.258;2022-10-17T01:51:27;6.90;;;3.40;;
64293;SDS011;50636;45.596;5.258;2022-10-17T01:54:09;8.48;;;5.97;;
64293;SDS011;50636;45.596;5.258;2022-10-17T01:56:42;7.38;;;3.22;;
64293;SDS011;50636;45.596;5.258;2022-10-17T01:59:14;3.70;;;2.40;;
64293;SDS011;50636;45.596;5.258;2022-10-17T02:01:46;6.00;;;3.05;;
64293;SDS011;50636;45.596;5.258;2022-10-17T02:04:14;7.57;;;2.70;;
64293;SDS011;50636;45.596;5.258;2022-10-17T02:06:40;6.32;;;2.63;;
64293;SDS011;50636;45.596;5.258;2022-10-17T02:09:22;4.75;;;2.30;;
64293;SDS011;50636;45.596;5.258;2022-10-17T02:17:31;8.60;;;2.10;;
64293;SDS011;50636;45.596;5.258;2022-10-17T02:20:18;4.75;;;2.70;;
64293;SDS011;50636;45.596;5.258;2022-10-17T02:23:00;7.10;;;2.88;;
64293;SDS011;50636;45.596;5.258;2022-10-17T02:25:30;4.68;;;2.28;;
64293;SDS011;50636;45.596;5.258;2022-10-17T02:30:49;5.07;;;1.95;;
64293;SDS011;50636;45.596;5.258;2022-10-17T02:33:24;4.50;;;2.72;;
64293;SDS011;50636;45.596;5.258;2022-10-17T02:35:57;8.50;;;2.55;;
64293;SDS011;50636;45.596;5.258;2022-10-17T02:38:28;4.45;;;2.67;;
64293;SDS011;50636;45.596;5.258;2022-10-17T02:40:56;4.50;;;2.55;;
64293;SDS011;50636;45.596;5.258;2022-10-17T02:43:22;10.40;;;3.03;;
64293;SDS011;50636;45.596;5.258;2022-10-17T02:45:48;4.57;;;2.45;;
64293;SDS011;50636;45.596;5.258;2022-10-17T02:48:18;10.10;;;2.55;;
64293;SDS011;50636;45.596;5.258;2022-10-17T02:51:07;3.65;;;2.35;;
64293;SDS011;50636;45.596;5.258;2022-10-17T02:56:29;5.13;;;2.60;;
64293;SDS011;50636;45.596;5.258;2022-10-17T02:59:01;6.72;;;2.88;;
64293;SDS011;50636;45.596;5.258;2022-10-17T03:01:30;7.53;;;3.00;;
64293;SDS011;50636;45.596;5.258;2022-10-17T03:04:09;7.28;;;2.60;;
64293;SDS011;50636;45.596;5.258;2022-10-17T03:06:37;4.40;;;2.50;;
64293;SDS011;50636;45.596;5.258;2022-10-17T03:09:05;6.25;;;2.47;;
64293;SDS011;50636;45.596;5.258;2022-10-17T03:11:32;6.35;;;2.50;;
64293;SDS011;50636;45.596;5.258;2022-10-17T03:13:58;8.48;;;2.50;;
64293;SDS011;50636;45.596;5.258;2022-10-17T03:16:24;7.18;;;2.63;;
64293;SDS011;50636;45.596;5.258;2022-10-17T03:18:49;7.22;;;2.40;;
64293;SDS011;50636;45.596;5.258;2022-10-17T03:21:15;5.53;;;2.53;;
64293;SDS011;50636;45.596;5.258;2022-10-17T03:23:41;10.70;;;3.13;;
64293;SDS011;50636;45.596;5.258;2022-10-17T03:26:06;10.27;;;2.70;;
64293;SDS011;50636;45.596;5.258;2022-10-17T03:28:33;5.47;;;2.63;;
64293;SDS011;50636;45.596;5.258;2022-10-17T03:30:58;5.45;;;2.85;;
64293;SDS011;50636;45.596;5.258;2022-10-17T03:33:30;9.55;;;2.80;;
64293;SDS011;50636;45.596;5.258;2022-10-17T03:35:56;5.07;;;2.50;;
64293;SDS011;50636;45.596;5.258;2022-10-17T03:38:21;4.90;;;2.63;;
64293;SDS011;50636;45.596;5.258;2022-10-17T03:40:53;6.05;;;2.90;;
64293;SDS011;50636;45.596;5.258;2022-10-17T03:43:20;7.70;;;3.00;;
64293;SDS011;50636;45.596;5.258;2022-10-17T03:45:46;4.78;;;3.00;;
64293;SDS011;50636;45.596;5.258;2022-10-17T03:48:11;5.75;;;3.22;;
64293;SDS011;50636;45.596;5.258;2022-10-17T03:50:37;4.57;;;2.83;;
64293;SDS011;50636;45.596;5.258;2022-10-17T03:53:03;10.43;;;3.35;;
64293;SDS011;50636;45.596;5.258;2022-10-17T03:55:28;5.95;;;3.00;;
64293;SDS011;50636;45.596;5.258;2022-10-17T03:57:54;6.03;;;2.78;;
64293;SDS011;50636;45.596;5.258;2022-10-17T04:00:19;8.38;;;3.00;;
64293;SDS011;50636;45.596;5.258;2022-10-17T04:02:45;8.20;;;2.92;;
64293;SDS011;50636;45.596;5.258;2022-10-17T04:05:11;5.10;;;2.70;;
64293;SDS011;50636;45.596;5.258;2022-10-17T04:07:36;8.20;;;3.05;;
64293;SDS011;50636;45.596;5.258;2022-10-17T04:10:03;3.92;;;2.47;;
64293;SDS011;50636;45.596;5.258;2022-10-17T04:12:29;5.28;;;2.40;;
64293;SDS011;50636;45.596;5.258;2022-10-17T04:14:54;5.47;;;2.88;;
64293;SDS011;50636;45.596;5.258;2022-10-17T04:17:20;6.85;;;3.05;;
64293;SDS011;50636;45.596;5.258;2022-10-17T04:19:47;5.45;;;2.40;;
64293;SDS011;50636;45.596;5.258;2022-10-17T04:22:14;5.13;;;2.50;;
64293;SDS011;50636;45.596;5.258;2022-10-17T04:24:39;9.80;;;3.45;;
64293;SDS011;50636;45.596;5.258;2022-10-17T04:27:05;7.18;;;2.85;;
64293;SDS011;50636;45.596;5.258;2022-10-17T04:29:31;4.50;;;2.38;;
64293;SDS011;50636;45.596;5.258;2022-10-17T04:31:56;6.00;;;2.80;;
64293;SDS011;50636;45.596;5.258;2022-10-17T04:34:22;7.25;;;2.60;;
64293;SDS011;50636;45.596;5.258;2022-10-17T04:36:48;12.57;;;3.10;;
64293;SDS011;50636;45.596;5.258;2022-10-17T04:39:16;7.50;;;2.72;;
64293;SDS011;50636;45.596;5.258;2022-10-17T04:41:41;9.73;;;2.72;;
64293;SDS011;50636;45.596;5.258;2022-10-17T04:44:08;5.78;;;2.58;;
64293;SDS011;50636;45.596;5.258;2022-10-17T04:46:34;8.35;;;2.50;;
64293;SDS011;50636;45.596;5.258;2022-10-17T04:49:00;16.42;;;3.70;;
64293;SDS011;50636;45.596;5.258;2022-10-17T04:51:26;21.85;;;3.75;;
64293;SDS011;50636;45.596;5.258;2022-10-17T04:53:51;10.93;;;3.22;;
64293;SDS011;50636;45.596;5.258;2022-10-17T04:56:18;5.40;;;2.60;;
64293;SDS011;50636;45.596;5.258;2022-10-17T04:58:45;6.90;;;2.78;;
64293;SDS011;50636;45.596;5.258;2022-10-17T05:01:15;5.93;;;2.63;;
64293;SDS011;50636;45.596;5.258;2022-10-17T05:03:44;6.68;;;2.97;;
64293;SDS011;50636;45.596;5.258;2022-10-17T05:06:14;6.50;;;2.72;;
64293;SDS011;50636;45.596;5.258;2022-10-17T05:08:41;7.47;;;2.75;;
64293;SDS011;50636;45.596;5.258;2022-10-17T05:11:24;7.13;;;2.60;;
64293;SDS011;50636;45.596;5.258;2022-10-17T05:13:52;8.10;;;2.70;;
64293;SDS011;50636;45.596;5.258;2022-10-17T05:16:22;6.90;;;2.97;;
64293;SDS011;50636;45.596;5.258;2022-10-17T05:18:49;3.65;;;2.40;;
64293;SDS011;50636;45.596;5.258;2022-10-17T05:21:16;11.52;;;3.58;;
64293;SDS011;50636;45.596;5.258;2022-10-17T05:23:42;6.28;;;2.50;;
64293;SDS011;50636;45.596;5.258;2022-10-17T05:26:08;14.23;;;3.92;;
64293;SDS011;50636;45.596;5.258;2022-10-17T05:28:34;7.07;;;3.40;;
64293;SDS011;50636;45.596;5.258;2022-10-17T05:31:03;4.97;;;2.58;;
64293;SDS011;50636;45.596;5.258;2022-10-17T05:33:30;10.68;;;2.95;;
64293;SDS011;50636;45.596;5.258;2022-10-17T05:35:56;4.28;;;2.60;;
64293;SDS011;50636;45.596;5.258;2022-10-17T05:38:22;8.98;;;3.10;;
64293;SDS011;50636;45.596;5.258;2022-10-17T05:40:48;3.72;;;2.25;;
64293;SDS011;50636;45.596;5.258;2022-10-17T05:43:14;6.20;;;3.08;;
64293;SDS011;50636;45.596;5.258;2022-10-17T05:45:40;7.22;;;2.80;;
64293;SDS011;50636;45.596;5.258;2022-10-17T05:48:06;5.47;;;2.90;;
64293;SDS011;50636;45.596;5.258;2022-10-17T05:50:33;7.20;;;2.80;;
64293;SDS011;50636;45.596;5.258;2022-10-17T05:53:00;8.13;;;3.13;;
64293;SDS011;50636;45.596;5.258;2022-10-17T05:55:26;5.57;;;2.17;;
64293;SDS011;50636;45.596;5.258;2022-10-17T05:57:52;5.32;;;2.75;;
64293;SDS011;50636;45.596;5.258;2022-10-17T06:00:18;4.72;;;3.03;;
64293;SDS011;50636;45.596;5.258;2022-10-17T06:02:45;6.00;;;2.75;;
64293;SDS011;50636;45.596;5.258;2022-10-17T06:05:11;8.10;;;3.20;;
64293;SDS011;50636;45.596;5.258;2022-10-17T06:07:38;7.32;;;2.92;;
64293;SDS011;50636;45.596;5.258;2022-10-17T06:10:04;10.23;;;3.83;;
64293;SDS011;50636;45.596;5.258;2022-10-17T06:12:30;5.15;;;3.60;;
64293;SDS011;50636;45.596;5.258;2022-10-17T06:14:55;4.93;;;2.92;;
64293;SDS011;50636;45.596;5.258;2022-10-17T06:17:21;5.28;;;3.13;;
64293;SDS011;50636;45.596;5.258;2022-10-17T06:19:47;6.65;;;3.03;;
64293;SDS011;50636;45.596;5.258;2022-10-17T06:22:13;8.45;;;2.97;;
64293;SDS011;50636;45.596;5.258;2022-10-17T06:24:38;10.73;;;3.53;;
64293;SDS011;50636;45.596;5.258;2022-10-17T06:27:04;6.20;;;3.25;;
64293;SDS011;50636;45.596;5.258;2022-10-17T06:29:30;7.38;;;3.38;;
64293;SDS011;50636;45.596;5.258;2022-10-17T06:31:55;15.65;;;3.70;;
64293;SDS011;50636;45.596;5.258;2022-10-17T06:34:21;6.30;;;2.90;;
64293;SDS011;50636;45.596;5.258;2022-10-17T06:36:47;7.30;;;2.88;;
64293;SDS011;50636;45.596;5.258;2022-10-17T06:39:13;5.60;;;2.75;;
64293;SDS011;50636;45.596;5.258;2022-10-17T06:41:38;5.80;;;2.70;;
64293;SDS011;50636;45.596;5.258;2022-10-17T06:44:05;10.50;;;3.35;;
64293;SDS011;50636;45.596;5.258;2022-10-17T06:46:36;9.68;;;3.58;;
64293;SDS011;50636;45.596;5.258;2022-10-17T06:49:03;7.43;;;3.63;;
64293;SDS011;50636;45.596;5.258;2022-10-17T06:51:30;6.70;;;2.80;;
64293;SDS011;50636;45.596;5.258;2022-10-17T06:53:58;15.13;;;3.35;;
64293;SDS011;50636;45.596;5.258;2022-10-17T06:56:24;5.53;;;2.72;;
64293;SDS011;50636;45.596;5.258;2022-10-17T06:58:50;4.78;;;2.40;;
64293;SDS011;50636;45.596;5.258;2022-10-17T07:01:17;5.93;;;2.70;;
64293;SDS011;50636;45.596;5.258;2022-10-17T07:03:42;6.53;;;2.75;;
64293;SDS011;50636;45.596;5.258;2022-10-17T07:06:13;15.95;;;4.25;;
64293;SDS011;50636;45.596;5.258;2022-10-17T07:08:42;12.02;;;3.70;;
64293;SDS011;50636;45.596;5.258;2022-10-17T07:11:09;7.95;;;2.97;;
64293;SDS011;50636;45.596;5.258;2022-10-17T07:13:39;15.52;;;3.83;;
64293;SDS011;50636;45.596;5.258;2022-10-17T07:16:05;6.90;;;2.80;;
64293;SDS011;50636;45.596;5.258;2022-10-17T07:18:32;6.07;;;3.50;;
64293;SDS011;50636;45.596;5.258;2022-10-17T07:20:57;6.25;;;3.17;;
64293;SDS011;50636;45.596;5.258;2022-10-17T07:23:23;9.98;;;2.90;;
64293;SDS011;50636;45.596;5.258;2022-10-17T07:25:49;7.55;;;2.95;;
64293;SDS011;50636;45.596;5.258;2022-10-17T07:28:15;11.98;;;3.42;;
64293;SDS011;50636;45.596;5.258;2022-10-17T07:30:40;6.65;;;2.97;;
64293;SDS011;50636;45.596;5.258;2022-10-17T07:33:06;10.88;;;3.72;;
64293;SDS011;50636;45.596;5.258;2022-10-17T07:35:32;9.82;;;2.90;;
64293;SDS011;50636;45.596;5.258;2022-10-17T07:37:58;14.35;;;3.63;;
64293;SDS011;50636;45.596;5.258;2022-10-17T07:40:24;15.32;;;3.55;;
64293;SDS011;50636;45.596;5.258;2022-10-17T07:42:50;8.90;;;2.90;;
64293;SDS011;50636;45.596;5.258;2022-10-17T07:45:15;10.93;;;2.88;;
64293;SDS011;50636;45.596;5.258;2022-10-17T07:47:41;7.15;;;2.35;;
64293;SDS011;50636;45.596;5.258;2022-10-17T07:50:07;6.10;;;2.63;;
64293;SDS011;50636;45.596;5.258;2022-10-17T07:52:33;5.95;;;2.10;;
64293;SDS011;50636;45.596;5.258;2022-10-17T07:54:59;3.60;;;2.05;;
64293;SDS011;50636;45.596;5.258;2022-10-17T07:57:25;7.15;;;2.30;;
64293;SDS011;50636;45.596;5.258;2022-10-17T07:59:51;7.65;;;2.90;;
64293;SDS011;50636;45.596;5.258;2022-10-17T08:02:24;5.57;;;1.88;;
64293;SDS011;50636;45.596;5.258;2022-10-17T08:04:52;3.37;;;1.70;;
64293;SDS011;50636;45.596;5.258;2022-10-17T08:07:18;6.93;;;2.42;;
64293;SDS011;50636;45.596;5.258;2022-10-17T08:09:45;4.82;;;2.10;;
64293;SDS011;50636;45.596;5.258;2022-10-17T08:12:11;5.47;;;2.28;;
64293;SDS011;50636;45.596;5.258;2022-10-17T08:14:39;3.67;;;1.80;;
64293;SDS011;50636;45.596;5.258;2022-10-17T08:17:08;6.60;;;2.25;;
64293;SDS011;50636;45.596;5.258;2022-10-17T08:19:36;4.75;;;1.83;;
64293;SDS011;50636;45.596;5.258;2022-10-17T08:22:03;4.25;;;1.80;;
64293;SDS011;50636;45.596;5.258;2022-10-17T08:24:29;8.52;;;2.33;;
64293;SDS011;50636;45.596;5.258;2022-10-17T08:26:55;5.90;;;2.10;;
64293;SDS011;50636;45.596;5.258;2022-10-17T08:29:22;5.93;;;2.38;;
64293;SDS011;50636;45.596;5.258;2022-10-17T08:31:49;8.52;;;2.10;;
64293;SDS011;50636;45.596;5.258;2022-10-17T08:34:15;11.07;;;2.30;;
64293;SDS011;50636;45.596;5.258;2022-10-17T08:36:40;8.80;;;2.05;;
64293;SDS011;50636;45.596;5.258;2022-10-17T08:39:06;5.25;;;2.17;;
64293;SDS011;50636;45.596;5.258;2022-10-17T08:41:35;16.00;;;2.55;;
64293;SDS011;50636;45.596;5.258;2022-10-17T08:47:19;9.32;;;2.53;;
64293;SDS011;50636;45.596;5.258;2022-10-17T08:49:54;7.15;;;3.33;;
64293;SDS011;50636;45.596;5.258;2022-10-17T08:52:31;9.07;;;2.70;;
64293;SDS011;50636;45.596;5.258;2022-10-17T08:55:18;10.43;;;2.22;;
64293;SDS011;50636;45.596;5.258;2022-10-17T08:58:00;7.15;;;2.55;;
64293;SDS011;50636;45.596;5.258;2022-10-17T09:00:26;3.58;;;2.40;;
64293;SDS011;50636;45.596;5.258;2022-10-17T09:03:02;4.45;;;1.92;;
64293;SDS011;50636;45.596;5.258;2022-10-17T09:05:45;3.67;;;1.95;;
64293;SDS011;50636;45.596;5.258;2022-10-17T09:08:27;5.10;;;1.98;;
64293;SDS011;50636;45.596;5.258;2022-10-17T09:11:16;4.70;;;1.90;;
64293;SDS011;50636;45.596;5.258;2022-10-17T09:14:07;24.38;;;3.28;;
64293;SDS011;50636;45.596;5.258;2022-10-17T09:16:38;5.00;;;2.00;;
64293;SDS011;50636;45.596;5.258;2022-10-17T09:19:20;10.15;;;2.25;;
64293;SDS011;50636;45.596;5.258;2022-10-17T09:27:37;15.30;;;2.78;;
64293;SDS011;50636;45.596;5.258;2022-10-17T09:32:48;4.03;;;2.08;;
64293;SDS011;50636;45.596;5.258;2022-10-17T09:35:15;3.92;;;1.80;;
64293;SDS011;50636;45.596;5.258;2022-10-17T09:37:42;3.92;;;1.60;;
64293;SDS011;50636;45.596;5.258;2022-10-17T09:40:31;4.68;;;1.92;;
64293;SDS011;50636;45.596;5.258;2022-10-17T09:42:58;4.70;;;1.80;;
64293;SDS011;50636;45.596;5.258;2022-10-17T09:45:28;5.57;;;2.05;;
64293;SDS011;50636;45.596;5.258;2022-10-17T09:50:32;3.20;;;1.77;;
64293;SDS011;50636;45.596;5.258;2022-10-17T09:53:00;7.07;;;1.83;;
64293;SDS011;50636;45.596;5.258;2022-10-17T09:55:41;4.65;;;1.92;;
64293;SDS011;50636;45.596;5.258;2022-10-17T09:58:13;4.43;;;1.70;;
64293;SDS011;50636;45.596;5.258;2022-10-17T10:00:40;7.18;;;2.40;;
64293;SDS011;50636;45.596;5.258;2022-10-17T10:06:30;6.55;;;2.65;;
64293;SDS011;50636;45.596;5.258;2022-10-17T10:08:53;7.28;;;1.95;;
64293;SDS011;50636;45.596;5.258;2022-10-17T10:11:24;5.82;;;1.90;;
64293;SDS011;50636;45.596;5.258;2022-10-17T10:14:12;18.48;;;2.70;;
64293;SDS011;50636;45.596;5.258;2022-10-17T10:16:49;10.63;;;2.67;;
64293;SDS011;50636;45.596;5.258;2022-10-17T10:22:02;4.95;;;1.80;;
64293;SDS011;50636;45.596;5.258;2022-10-17T10:24:39;10.93;;;2.13;;
64293;SDS011;50636;45.596;5.258;2022-10-17T10:27:06;11.98;;;2.55;;
64293;SDS011;50636;45.596;5.258;2022-10-17T10:29:41;4.28;;;1.92;;
64293;SDS011;50636;45.596;5.258;2022-10-17T10:35:04;5.70;;;2.00;;
64293;SDS011;50636;45.596;5.258;2022-10-17T10:37:35;6.35;;;1.95;;
64293;SDS011;50636;45.596;5.258;2022-10-17T10:40:17;4.80;;;1.88;;
64293;SDS011;50636;45.596;5.258;2022-10-17T10:43:04;4.43;;;1.65;;
64293;SDS011;50636;45.596;5.258;2022-10-17T10:48:10;8.25;;;1.70;;
64293;SDS011;50636;45.596;5.258;2022-10-17T10:56:21;3.58;;;1.80;;
64293;SDS011;50636;45.596;5.258;2022-10-17T11:04:27;3.50;;;1.77;;
64293;SDS011;50636;45.596;5.258;2022-10-17T11:09:53;5.97;;;1.90;;
64293;SDS011;50636;45.596;5.258;2022-10-17T11:12:27;4.28;;;1.90;;
64293;SDS011;50636;45.596;5.258;2022-10-17T11:17:59;5.03;;;1.70;;
64293;SDS011;50636;45.596;5.258;2022-10-17T11:23:32;4.50;;;1.67;;
64293;SDS011;50636;45.596;5.258;2022-10-17T11:26:25;11.68;;;2.38;;
64293;SDS011;50636;45.596;5.258;2022-10-17T11:28:53;3.83;;;1.67;;
64293;SDS011;50636;45.596;5.258;2022-10-17T11:31:21;8.32;;;2.28;;
64293;SDS011;50636;45.596;5.258;2022-10-17T11:33:58;5.82;;;1.60;;
64293;SDS011;50636;45.596;5.258;2022-10-17T11:36:44;4.80;;;1.45;;
64293;SDS011;50636;45.596;5.258;2022-10-17T11:39:57;3.55;;;1.70;;
64293;SDS011;50636;45.596;5.258;2022-10-17T11:42:14;6.40;;;1.95;;
64293;SDS011;50636;45.596;5.258;2022-10-17T11:44:46;7.20;;;1.95;;
64293;SDS011;50636;45.596;5.258;2022-10-17T11:47:27;5.13;;;1.60;;
64293;SDS011;50636;45.596;5.258;2022-10-17T11:49:56;3.47;;;1.60;;
64293;SDS011;50636;45.596;5.258;2022-10-17T11:52:43;2.40;;;1.45;;
64293;SDS011;50636;45.596;5.258;2022-10-17T11:55:19;5.00;;;1.60;;
64293;SDS011;50636;45.596;5.258;2022-10-17T12:00:37;11.45;;;2.10;;
64293;SDS011;50636;45.596;5.258;2022-10-17T12:11:28;3.17;;;1.40;;
64293;SDS011;50636;45.596;5.258;2022-10-17T12:14:01;5.13;;;1.63;;
64293;SDS011;50636;45.596;5.258;2022-10-17T12:19:16;5.07;;;1.65;;
64293;SDS011;50636;45.596;5.258;2022-10-17T12:21:56;4.93;;;1.90;;
64293;SDS011;50636;45.596;5.258;2022-10-17T12:24:32;4.88;;;1.77;;
64293;SDS011;50636;45.596;5.258;2022-10-17T12:27:21;5.72;;;1.60;;
64293;SDS011;50636;45.596;5.258;2022-10-17T12:30:25;5.82;;;2.08;;
64293;SDS011;50636;45.596;5.258;2022-10-17T12:32:53;5.80;;;1.65;;
64293;SDS011;50636;45.596;5.258;2022-10-17T12:35:25;5.85;;;1.85;;
64293;SDS011;50636;45.596;5.258;2022-10-17T12:43:02;4.22;;;1.73;;
64293;SDS011;50636;45.596;5.258;2022-10-17T12:45:54;5.38;;;1.60;;
64293;SDS011;50636;45.596;5.258;2022-10-17T12:51:03;7.65;;;1.92;;
64293;SDS011;50636;45.596;5.258;2022-10-17T12:56:14;2.58;;;1.92;;
64293;SDS011;50636;45.596;5.258;2022-10-17T12:58:46;12.23;;;2.40;;
64293;SDS011;50636;45.596;5.258;2022-10-17T13:01:27;4.70;;;1.50;;
64293;SDS011;50636;45.596;5.258;2022-10-17T13:03:56;3.25;;;1.98;;
64293;SDS011;50636;45.596;5.258;2022-10-17T13:06:27;13.63;;;2.53;;
64293;SDS011;50636;45.596;5.258;2022-10-17T13:08:59;4.22;;;1.75;;
64293;SDS011;50636;45.596;5.258;2022-10-17T13:11:29;4.60;;;1.80;;
64293;SDS011;50636;45.596;5.258;2022-10-17T13:13:58;4.43;;;1.90;;
64293;SDS011;50636;45.596;5.258;2022-10-17T13:18:53;8.35;;;1.90;;
64293;SDS011;50636;45.596;5.258;2022-10-17T13:21:19;9.68;;;2.05;;
64293;SDS011;50636;45.596;5.258;2022-10-17T13:23:45;9.70;;;2.13;;
64293;SDS011;50636;45.596;5.258;2022-10-17T13:26:18;10.73;;;2.17;;
64293;SDS011;50636;45.596;5.258;2022-10-17T13:29:05;7.22;;;1.80;;
64293;SDS011;50636;45.596;5.258;2022-10-17T13:31:42;5.75;;;2.00;;
64293;SDS011;50636;45.596;5.258;2022-10-17T13:34:15;3.10;;;1.95;;
64293;SDS011;50636;45.596;5.258;2022-10-17T13:36:46;6.63;;;1.77;;
64293;SDS011;50636;45.596;5.258;2022-10-17T13:39:17;8.25;;;2.58;;
64293;SDS011;50636;45.596;5.258;2022-10-17T13:41:46;5.80;;;2.30;;
64293;SDS011;50636;45.596;5.258;2022-10-17T13:44:13;7.90;;;1.85;;
64293;SDS011;50636;45.596;5.258;2022-10-17T13:46:42;5.72;;;2.20;;
64293;SDS011;50636;45.596;5.258;2022-10-17T13:49:54;3.53;;;1.80;;
64293;SDS011;50636;45.596;5.258;2022-10-17T13:52:03;7.03;;;1.90;;
64293;SDS011;50636;45.596;5.258;2022-10-17T13:54:41;12.32;;;2.60;;
64293;SDS011;50636;45.596;5.258;2022-10-17T13:57:28;3.40;;;1.60;;
64293;SDS011;50636;45.596;5.258;2022-10-17T14:00:03;4.57;;;1.45;;
64293;SDS011;50636;45.596;5.258;2022-10-17T14:02:33;5.35;;;2.10;;
64293;SDS011;50636;45.596;5.258;2022-10-17T14:05:13;6.70;;;1.95;;
64293;SDS011;50636;45.596;5.258;2022-10-17T14:07:54;2.95;;;1.60;;
64293;SDS011;50636;45.596;5.258;2022-10-17T14:10:29;4.95;;;1.70;;
64293;SDS011;50636;45.596;5.258;2022-10-17T14:12:58;7.68;;;2.15;;
64293;SDS011;50636;45.596;5.258;2022-10-17T14:15:26;6.03;;;2.00;;
64293;SDS011;50636;45.596;5.258;2022-10-17T14:17:55;7.57;;;1.88;;
64293;SDS011;50636;45.596;5.258;2022-10-17T14:20:24;5.88;;;1.73;;
64293;SDS011;50636;45.596;5.258;2022-10-17T14:22:53;2.95;;;1.50;;
64293;SDS011;50636;45.596;5.258;2022-10-17T14:25:26;5.55;;;1.80;;
64293;SDS011;50636;45.596;5.258;2022-10-17T14:28:00;7.82;;;2.50;;
64293;SDS011;50636;45.596;5.258;2022-10-17T14:30:34;9.25;;;2.00;;
64293;SDS011;50636;45.596;5.258;2022-10-17T14:33:01;4.60;;;1.83;;
64293;SDS011;50636;45.596;5.258;2022-10-17T14:35:30;4.35;;;2.20;;
64293;SDS011;50636;45.596;5.258;2022-10-17T14:37:57;4.00;;;2.17;;
64293;SDS011;50636;45.596;5.258;2022-10-17T14:40:29;5.35;;;1.83;;
64293;SDS011;50636;45.596;5.258;2022-10-17T14:42:57;5.35;;;2.65;;
64293;SDS011;50636;45.596;5.258;2022-10-17T14:45:31;6.50;;;2.72;;
64293;SDS011;50636;45.596;5.258;2022-10-17T14:48:03;4.78;;;2.05;;
64293;SDS011;50636;45.596;5.258;2022-10-17T14:50:34;6.18;;;2.08;;
64293;SDS011;50636;45.596;5.258;2022-10-17T14:53:02;4.20;;;2.03;;
64293;SDS011;50636;45.596;5.258;2022-10-17T14:55:30;10.43;;;2.60;;
64293;SDS011;50636;45.596;5.258;2022-10-17T14:57:58;5.20;;;1.80;;
64293;SDS011;50636;45.596;5.258;2022-10-17T15:00:24;5.57;;;2.15;;
64293;SDS011;50636;45.596;5.258;2022-10-17T15:02:51;2.80;;;1.80;;
64293;SDS011;50636;45.596;5.258;2022-10-17T15:05:18;4.70;;;1.90;;
64293;SDS011;50636;45.596;5.258;2022-10-17T15:07:47;5.88;;;1.80;;
64293;SDS011;50636;45.596;5.258;2022-10-17T15:10:32;6.38;;;2.10;;
64293;SDS011;50636;45.596;5.258;2022-10-17T15:13:00;4.53;;;1.67;;
64293;SDS011;50636;45.596;5.258;2022-10-17T15:15:27;3.78;;;1.83;;
64293;SDS011;50636;45.596;5.258;2022-10-17T15:17:53;3.47;;;2.28;;
64293;SDS011;50636;45.596;5.258;2022-10-17T15:20:20;5.68;;;1.90;;
64293;SDS011;50636;45.596;5.258;2022-10-17T15:22:53;9.05;;;1.90;;
64293;SDS011;50636;45.596;5.258;2022-10-17T15:25:19;5.90;;;1.80;;
64293;SDS011;50636;45.596;5.258;2022-10-17T15:27:45;10.70;;;2.20;;
64293;SDS011;50636;45.596;5.258;2022-10-17T15:32:54;4.32;;;1.90;;
64293;SDS011;50636;45.596;5.258;2022-10-17T15:35:20;4.35;;;2.03;;
64293;SDS011;50636;45.596;5.258;2022-10-17T15:37:47;7.45;;;1.92;;
64293;SDS011;50636;45.596;5.258;2022-10-17T15:40:17;6.70;;;2.25;;
64293;SDS011;50636;45.596;5.258;2022-10-17T15:42:44;4.93;;;2.30;;
64293;SDS011;50636;45.596;5.258;2022-10-17T15:45:11;7.95;;;2.05;;
64293;SDS011;50636;45.596;5.258;2022-10-17T15:47:40;3.95;;;1.90;;
64293;SDS011;50636;45.596;5.258;2022-10-17T15:50:06;8.13;;;1.83;;
64293;SDS011;50636;45.596;5.258;2022-10-17T15:52:37;6.45;;;1.77;;
64293;SDS011;50636;45.596;5.258;2022-10-17T15:55:03;8.90;;;2.22;;
64293;SDS011;50636;45.596;5.258;2022-10-17T15:57:30;2.25;;;1.65;;
64293;SDS011;50636;45.596;5.258;2022-10-17T16:00:00;8.50;;;2.00;;
64293;SDS011;50636;45.596;5.258;2022-10-17T16:02:26;4.22;;;2.20;;
64293;SDS011;50636;45.596;5.258;2022-10-17T16:04:52;5.47;;;1.85;;
64293;SDS011;50636;45.596;5.258;2022-10-17T16:07:18;13.75;;;2.53;;
64293;SDS011;50636;45.596;5.258;2022-10-17T16:09:44;6.47;;;2.00;;
64293;SDS011;50636;45.596;5.258;2022-10-17T16:12:12;2.85;;;1.73;;
64293;SDS011;50636;45.596;5.258;2022-10-17T16:14:45;7.03;;;2.13;;
64293;SDS011;50636;45.596;5.258;2022-10-17T16:17:14;5.80;;;1.88;;
64293;SDS011;50636;45.596;5.258;2022-10-17T16:19:41;5.90;;;2.08;;
64293;SDS011;50636;45.596;5.258;2022-10-17T16:22:18;8.63;;;2.38;;
64293;SDS011;50636;45.596;5.258;2022-10-17T16:24:55;6.22;;;2.00;;
64293;SDS011;50636;45.596;5.258;2022-10-17T16:27:23;7.93;;;2.17;;
64293;SDS011;50636;45.596;5.258;2022-10-17T16:29:49;4.85;;;2.00;;
64293;SDS011;50636;45.596;5.258;2022-10-17T16:32:15;7.93;;;2.15;;
64293;SDS011;50636;45.596;5.258;2022-10-17T16:34:40;5.90;;;1.92;;
64293;SDS011;50636;45.596;5.258;2022-10-17T16:37:06;6.93;;;2.20;;
64293;SDS011;50636;45.596;5.258;2022-10-17T16:39:32;7.30;;;2.53;;
64293;SDS011;50636;45.596;5.258;2022-10-17T16:41:57;6.50;;;2.22;;